Time;durP1;ratioP1;P1;durP2;ratioP2;P2;SDS_P1;SDS_P2;PMS_P1;PMS_P2;Temp;Humidity;BMP_temperature;BMP_pressure;BME280_temperature;BME280_humidity;BME280_pressure;Samples;Min_cycle;Max_cycle;Signal;HPM_P1;HPM_P2
2023/07/08 00:01:23;;;;;;;;;33.75;32.25;;;;;23.99;62.72;101062.56;6186460;23;45273;-81
2023/07/08 00:03:51;;;;;;;;;40.67;37.00;;;;;23.97;61.85;101045.69;6185857;23;45759;-81
2023/07/08 00:06:25;;;;;;;;;29.00;29.00;;;;;23.99;63.03;101061.72;6183133;23;45391;-81
2023/07/08 00:08:55;;;;;;;;;35.00;31.25;;;;;24.26;62.27;101103.13;6185874;23;45309;-81
2023/07/08 00:11:21;;;;;;;;;41.67;36.67;;;;;23.76;61.50;101029.72;6185363;23;45676;-81
2023/07/08 00:13:47;;;;;;;;;30.50;28.75;;;;;24.03;62.80;101066.69;6185339;23;45398;-81
2023/07/08 00:16:30;;;;;;;;;43.33;37.67;;;;;23.85;62.03;101052.31;6185790;23;45557;-81
2023/07/08 00:18:56;;;;;;;;;38.33;34.33;;;;;23.76;63.46;101047.78;6180339;23;45324;-81
2023/07/08 00:21:21;;;;;;;;;42.00;37.25;;;;;24.04;62.52;101092.72;6185263;23;45326;-81
2023/07/08 00:23:55;;;;;;;;;46.00;39.33;;;;;23.96;63.27;101098.00;6185251;23;45461;-81
2023/07/08 00:26:35;;;;;;;;;38.25;34.75;;;;;23.99;62.97;101096.84;6185451;23;45455;-82
2023/07/08 00:29:15;;;;;;;;;37.75;34.25;;;;;24.18;63.73;101124.63;6183606;23;45272;-82
2023/07/08 00:31:40;;;;;;;;;36.67;33.00;;;;;23.84;63.25;101088.41;6185906;23;45414;-82
2023/07/08 00:34:08;;;;;;;;;37.00;32.50;;;;;23.59;63.50;101032.41;6184555;23;45309;-82
2023/07/08 00:36:35;;;;;;;;;38.75;35.75;;;;;23.69;64.31;101069.16;6184926;23;45373;-82
2023/07/08 00:39:02;;;;;;;;;34.75;33.00;;;;;23.50;64.99;101036.84;6186005;23;45236;-82
2023/07/08 00:41:38;;;;;;;;;38.50;33.50;;;;;23.93;64.51;101114.53;6158488;23;45386;-82
2023/07/08 00:44:03;;;;;;;;;39.50;36.00;;;;;23.73;65.54;101085.91;6185080;23;46455;-82
2023/07/08 00:47:01;;;;;;;;;37.50;34.75;;;;;24.11;66.50;101149.72;6185874;23;45236;-82
2023/07/08 00:49:49;;;;;;;;;29.50;29.50;;;;;24.07;65.60;101151.84;6146405;23;45368;-82
2023/07/08 00:52:29;;;;;;;;;38.00;34.75;;;;;23.45;65.68;101073.41;6183325;23;45317;-82
2023/07/08 00:54:59;;;;;;;;;33.75;31.50;;;;;23.66;65.91;101109.09;6185512;23;45547;-82
2023/07/08 00:57:42;;;;;;;;;32.50;28.25;;;;;23.76;66.35;101113.47;6184983;23;45218;-81
2023/07/08 01:00:12;;;;;;;;;38.00;35.00;;;;;23.70;65.41;101092.47;6184341;23;45405;-82
2023/07/08 01:02:56;;;;;;;;;45.67;38.67;;;;;23.59;64.13;101070.22;6183619;23;45277;-82
2023/07/08 01:05:29;;;;;;;;;42.00;37.75;;;;;23.52;65.42;101077.22;6181857;23;45354;-82
2023/07/08 01:07:59;;;;;;;;;46.00;40.25;;;;;23.61;65.40;101100.59;6183709;23;45247;-82
2023/07/08 01:10:32;;;;;;;;;42.67;35.67;;;;;23.70;64.77;101088.91;6182745;23;45292;-82
2023/07/08 01:13:02;;;;;;;;;37.50;34.25;;;;;23.49;65.70;101062.16;6182340;23;45475;-81
2023/07/08 01:18:36;;;;;;;;;33.75;32.50;;;;;23.50;66.41;101090.84;6177785;23;45259;-82
2023/07/08 01:21:35;;;;;;;;;28.00;28.00;;;;;23.30;66.06;101059.47;6181326;23;45439;-82
2023/07/08 01:24:08;;;;;;;;;31.75;30.00;;;;;23.20;67.10;101056.81;6175656;23;45579;-81
2023/07/08 01:26:47;;;;;;;;;27.50;25.50;;;;;23.14;67.25;101065.50;6184615;23;45640;-82
2023/07/08 01:29:13;;;;;;;;;30.25;30.00;;;;;23.44;66.93;101113.03;6183948;23;45172;-81
2023/07/08 01:31:43;;;;;;;;;30.25;27.25;;;;;23.22;67.73;101059.38;6185062;23;45206;-82
2023/07/08 01:34:10;;;;;;;;;28.25;28.25;;;;;23.32;67.65;101084.50;6184391;23;45456;-82
2023/07/08 01:36:42;;;;;;;;;22.75;21.25;;;;;23.10;68.13;101047.91;6184099;23;45568;-82
2023/07/08 01:39:29;;;;;;;;;27.00;27.00;;;;;23.61;67.67;101162.72;6184813;23;45310;-82
2023/07/08 01:41:58;;;;;;;;;28.00;28.00;;;;;22.94;68.01;101058.44;6153270;23;45493;-81
2023/07/08 01:44:29;;;;;;;;;26.00;26.00;;;;;23.38;68.20;101118.13;6181910;23;45262;-81
2023/07/08 01:47:00;;;;;;;;;24.00;24.00;;;;;23.55;69.17;101158.78;6185180;23;46280;-82
2023/07/08 01:49:28;;;;;;;;;25.75;25.75;;;;;;;;6185233;23;45266;-81
2023/07/08 01:51:58;;;;;;;;;26.50;24.25;;;;;22.93;69.24;101112.56;6185010;23;45452;-81
2023/07/08 01:54:24;;;;;;;;;25.75;25.75;;;;;22.96;68.56;101194.06;6185324;23;45399;-81
2023/07/08 01:57:00;;;;;;;;;29.25;26.50;;;;;22.91;65.91;101200.84;6185584;23;46834;-82
2023/07/08 01:59:26;;;;;;;;;32.75;31.25;;;;;23.38;65.48;101231.53;6183985;23;45411;-81
2023/07/08 02:01:54;;;;;;;;;36.25;34.25;;;;;23.47;64.35;101236.94;6187782;23;45208;-81
2023/07/08 02:04:23;;;;;;;;;35.67;33.00;;;;;23.77;63.86;101279.97;6188780;23;45478;-81
2023/07/08 02:06:54;;;;;;;;;43.50;38.50;;;;;23.66;62.49;101249.53;6193105;23;45515;-81
2023/07/08 02:09:27;;;;;;;;;42.50;36.25;;;;;23.33;62.05;101186.91;6194838;23;45263;-81
2023/07/08 02:11:53;;;;;;;;;36.25;34.00;;;;;24.02;61.57;101296.53;6196568;23;45334;-81
2023/07/08 02:14:19;;;;;;;;;43.67;37.33;;;;;23.83;60.95;101246.09;6196568;23;44821;-82
2023/07/08 02:16:44;;;;;;;;;45.00;39.50;;;;;23.81;60.36;101235.44;6197215;23;45782;-82
2023/07/08 02:19:12;;;;;;;;;49.33;42.00;;;;;23.78;60.87;101210.59;6195749;23;45400;-81
2023/07/08 02:21:39;;;;;;;;;37.33;34.00;;;;;23.76;60.69;101190.94;6190930;23;45435;-81
2023/07/08 02:24:08;;;;;;;;;38.00;33.75;;;;;24.01;60.64;101217.31;6190942;23;45262;-81
2023/07/08 02:26:33;;;;;;;;;32.50;31.50;;;;;24.09;60.53;101233.63;6184142;23;47951;-81
2023/07/08 02:28:59;;;;;;;;;35.75;32.75;;;;;23.94;61.02;101186.47;6185308;23;45278;-81
2023/07/08 02:31:25;;;;;;;;;39.25;35.25;;;;;24.18;61.61;101231.94;6183605;23;45316;-81
2023/07/08 02:33:51;;;;;;;;;32.50;31.75;;;;;23.93;61.99;101195.59;6182471;23;45426;-81
2023/07/08 02:36:24;;;;;;;;;26.00;26.00;;;;;24.31;62.10;101245.97;6185721;23;45373;-81
2023/07/08 02:38:54;;;;;;;;;29.67;29.00;;;;;24.13;62.48;101199.06;6183495;23;45453;-81
2023/07/08 02:41:19;;;;;;;;;32.00;31.67;;;;;24.30;62.56;101214.50;6186036;23;45266;-82
2023/07/08 02:43:45;;;;;;;;;24.75;24.75;;;;;24.07;62.85;101169.91;6187257;23;45244;-82
2023/07/08 02:46:10;;;;;;;;;28.50;25.50;;;;;24.38;63.46;101211.88;6191718;23;45180;-81
2023/07/08 02:48:36;;;;;;;;;12.75;12.75;;;;;24.06;63.54;101169.06;6188600;23;45277;-81
2023/07/08 02:51:03;;;;;;;;;24.50;24.50;;;;;24.00;63.83;101155.31;6189621;23;45657;-81
2023/07/08 02:53:31;;;;;;;;;30.00;29.67;;;;;23.71;63.73;101118.47;6187066;23;45494;-81
2023/07/08 02:55:57;;;;;;;;;25.75;24.00;;;;;24.00;65.08;101190.44;6186942;23;45317;-81
2023/07/08 02:58:35;;;;;;;;;29.00;29.00;;;;;23.97;62.59;101180.78;6188871;23;45200;-81
2023/07/08 03:01:00;;;;;;;;;33.33;32.00;;;;;24.10;62.05;101180.44;6162278;23;45351;-81
2023/07/08 03:03:29;;;;;;;;;31.00;31.00;;;;;24.13;62.58;101209.88;6188393;23;45218;-82
2023/07/08 03:05:58;;;;;;;;;35.50;33.50;;;;;23.63;62.76;101112.09;6187999;23;45343;-81
2023/07/08 03:08:33;;;;;;;;;33.00;32.00;;;;;23.53;62.51;101109.44;6185016;23;45403;-81
2023/07/08 03:11:03;;;;;;;;;35.00;33.50;;;;;23.74;61.14;101133.53;6183905;23;45618;-81
2023/07/08 03:13:29;;;;;;;;;32.33;32.00;;;;;23.63;62.49;101115.66;6185207;23;45392;-81
2023/07/08 03:16:12;;;;;;;;;31.33;31.00;;;;;23.39;61.53;101087.47;6180850;23;46369;-81
2023/07/08 03:19:04;;;;;;;;;30.00;29.75;;;;;23.47;62.79;101106.47;6157837;23;45348;-81
2023/07/08 03:21:30;;;;;;;;;23.50;23.50;;;;;23.44;63.22;101104.09;6169874;23;45223;-81
2023/07/08 03:23:55;;;;;;;;;35.25;33.75;;;;;23.67;62.40;101141.38;6185482;23;45168;-81
2023/07/08 03:26:34;;;;;;;;;124.50;122.25;;;;;23.79;61.08;101163.63;6185374;23;45191;-81
2023/07/08 03:29:13;;;;;;;;;34.75;33.00;;;;;23.68;60.44;101172.81;6184305;23;45251;-81
2023/07/08 03:31:38;;;;;;;;;35.75;33.75;;;;;23.54;60.92;101134.59;6158044;23;45335;-81
2023/07/08 03:34:04;;;;;;;;;39.75;36.00;;;;;23.53;60.89;101125.66;6184644;23;45401;-81
2023/07/08 03:36:29;;;;;;;;;30.00;29.00;;;;;23.49;61.92;101116.16;6182853;23;48030;-81
2023/07/08 03:38:57;;;;;;;;;36.25;33.75;;;;;23.64;60.99;101133.56;6184522;23;45221;-81
2023/07/08 03:41:28;;;;;;;;;24.75;24.75;;;;;23.41;62.33;101097.13;6158572;23;45243;-81
2023/07/08 03:43:54;;;;;;;;;17.25;17.25;;;;;23.52;63.91;101121.25;6183507;23;45284;-81
2023/07/08 03:46:31;;;;;;;;;32.67;32.33;;;;;23.31;62.62;101072.84;6185578;23;46006;-81
2023/07/08 03:48:57;;;;;;;;;16.25;16.25;;;;;23.47;62.93;101111.88;6185224;23;45251;-81
2023/07/08 03:51:34;;;;;;;;;34.00;32.75;;;;;23.27;62.30;101059.78;6153908;23;45332;-81
2023/07/08 03:54:00;;;;;;;;;23.00;23.00;;;;;23.43;64.46;101097.00;6185202;23;45378;-81
2023/07/08 03:56:31;;;;;;;;;23.00;23.00;;;;;23.32;65.73;101079.09;6181139;23;45663;-81
2023/07/08 03:58:57;;;;;;;;;16.00;16.00;;;;;23.34;64.93;101087.88;6183426;23;45550;-81
2023/07/08 04:01:24;;;;;;;;;24.75;24.25;;;;;;;;6158839;23;45346;-81
2023/07/08 04:03:54;;;;;;;;;17.75;17.75;;;;;23.18;66.50;101083.13;6185145;23;45457;-81
2023/07/08 04:06:23;;;;;;;;;18.50;17.25;;;;;22.98;66.75;101057.16;6182902;23;45500;-81
2023/07/08 04:08:49;;;;;;;;;18.00;18.00;;;;;23.18;67.42;101099.31;6182868;23;45408;-82
2023/07/08 04:11:21;;;;;;;;;21.25;21.25;;;;;22.75;65.13;101018.91;6184733;23;45279;-81
2023/07/08 04:13:47;;;;;;;;;12.75;12.75;;;;;22.93;65.40;101045.13;6158314;23;45553;-81
2023/07/08 04:16:30;;;;;;;;;23.00;22.50;;;;;23.22;65.34;101086.38;6158575;23;45319;-82
2023/07/08 04:19:01;;;;;;;;;18.00;18.00;;;;;22.89;64.74;101028.38;6184472;23;45180;-82
2023/07/08 04:21:26;;;;;;;;;26.50;26.50;;;;;22.79;64.08;101020.31;6175698;23;45383;-82
2023/07/08 04:24:00;;;;;;;;;18.25;18.25;;;;;22.86;64.22;101030.50;6184636;23;45227;-82
2023/07/08 04:26:26;;;;;;;;;23.00;23.00;;;;;23.06;64.84;101095.09;6184239;23;46072;-82
2023/07/08 04:28:51;;;;;;;;;17.75;17.75;;;;;22.84;65.67;101047.69;6184513;23;45416;-82
2023/07/08 04:31:19;;;;;;;;;21.00;21.00;;;;;22.88;65.15;101056.34;6185065;23;45253;-81
2023/07/08 04:33:47;;;;;;;;;17.00;17.00;;;;;23.02;66.20;101065.81;6157235;23;45364;-82
2023/07/08 04:36:14;;;;;;;;;11.00;11.00;;;;;22.96;67.79;101058.31;6184037;23;45475;-81
2023/07/08 04:38:41;;;;;;;;;9.75;9.75;;;;;23.03;68.33;101108.88;6183428;23;45360;-82
2023/07/08 04:41:06;;;;;;;;;8.00;8.00;;;;;22.96;68.25;101106.88;6181167;23;45446;-82
2023/07/08 04:43:32;;;;;;;;;11.75;11.75;;;;;22.63;67.61;101038.91;6184998;23;45328;-82
2023/07/08 04:45:58;;;;;;;;;7.75;7.75;;;;;;;;6184153;23;45242;-81
2023/07/08 04:48:24;;;;;;;;;10.50;10.50;;;;;22.39;68.23;100994.50;6184589;23;45235;-81
2023/07/08 04:50:51;;;;;;;;;4.50;4.50;;;;;22.51;69.84;101050.81;6182439;23;45294;-82
2023/07/08 04:53:17;;;;;;;;;8.75;5.00;;;;;22.54;68.30;101065.88;6157200;23;45496;-82
2023/07/08 04:55:46;;;;;;;;;25.00;25.00;;;;;22.68;66.53;101068.16;6182617;23;46780;-82
2023/07/08 04:58:14;;;;;;;;;6.33;6.33;;;;;22.50;68.85;101054.53;6184646;23;45977;-82
2023/07/08 05:00:55;;;;;;;;;6.25;6.25;;;;;22.76;68.89;101106.06;6184355;23;45306;-81
2023/07/08 05:03:20;;;;;;;;;9.50;9.50;;;;;22.57;68.86;101052.97;6183990;23;45420;-82
2023/07/08 05:05:46;;;;;;;;;8.00;8.00;;;;;22.72;69.15;101075.81;6183585;23;45457;-81
2023/07/08 05:08:12;;;;;;;;;4.50;4.50;;;;;22.68;70.99;101081.63;6184341;23;45215;-82
2023/07/08 05:10:45;;;;;;;;;3.75;3.75;;;;;22.81;69.81;101091.13;6182811;23;45218;-82
2023/07/08 05:13:13;;;;;;;;;9.50;9.50;;;;;22.92;68.62;101121.66;6182729;23;45241;-82
2023/07/08 05:15:38;;;;;;;;;2.75;2.75;;;;;23.12;70.06;101159.25;6181448;23;47821;-82
2023/07/08 05:18:06;;;;;;;;;12.75;12.75;;;;;22.82;68.38;101109.03;6185300;23;45352;-82
2023/07/08 05:20:33;;;;;;;;;14.50;14.50;;;;;23.11;67.66;101145.91;6182344;23;45344;-82
2023/07/08 05:23:02;;;;;;;;;3.33;3.33;;;;;22.86;70.67;101100.66;6186468;23;45455;-82
2023/07/08 05:25:31;;;;;;;;;4.33;4.33;;;;;22.79;71.09;101101.22;6163496;23;48182;-82
2023/07/08 05:27:59;;;;;;;;;3.00;2.67;;;;;22.76;73.47;101079.09;6188376;23;45349;-82
2023/07/08 05:30:28;;;;;;;;;3.67;3.33;;;;;22.92;74.38;101135.13;6187834;23;45405;-82
2023/07/08 05:32:55;;;;;;;;;4.25;4.25;;;;;22.72;70.43;101104.63;6189512;23;45237;-82
2023/07/08 05:35:27;;;;;;;;;18.50;18.00;;;;;22.87;67.26;101143.69;6190701;23;45499;-82
2023/07/08 05:38:00;;;;;;;;;12.50;12.50;;;;;22.79;68.67;101130.91;6164222;23;45265;-82
2023/07/08 05:40:28;;;;;;;;;7.50;7.50;;;;;23.32;70.40;101205.97;6188836;23;45374;-82
2023/07/08 05:42:57;;;;;;;;;1.33;1.33;;;;;22.92;73.01;101143.22;6189482;23;45235;-82
2023/07/08 05:45:22;;;;;;;;;3.00;3.00;;;;;22.93;74.63;101171.91;6187473;23;45599;-82
2023/07/08 05:47:48;;;;;;;;;3.00;3.00;;;;;22.89;77.50;101157.00;6187997;23;45317;-81
2023/07/08 05:50:13;;;;;;;;;6.00;2.67;;;;;23.04;80.97;101223.00;6191010;23;45253;-81
2023/07/08 05:52:41;;;;;;;;;5.25;4.25;;;;;22.73;80.39;101180.00;6188227;23;45330;-82
2023/07/08 05:55:10;;;;;;;;;3.50;3.50;;;;;22.65;75.82;101152.84;6164091;23;45556;-81
2023/07/08 05:57:37;;;;;;;;;5.25;5.25;;;;;22.59;77.11;101141.78;6187293;23;45251;-83
2023/07/08 06:00:06;;;;;;;;;3.75;3.75;;;;;23.25;80.63;101242.63;6188897;23;45464;-83
2023/07/08 06:02:32;;;;;;;;;6.25;5.00;;;;;22.73;78.99;101180.00;6187943;23;45358;-83
2023/07/08 06:05:23;;;;;;;;;2.75;2.75;;;;;22.93;81.50;101193.50;6160779;23;46243;-82
2023/07/08 06:07:49;;;;;;;;;4.50;4.50;;;;;22.91;77.98;101209.81;6189037;23;44755;-82
2023/07/08 06:10:14;;;;;;;;;6.00;4.00;;;;;22.95;78.16;101224.72;6187830;23;45298;-82
2023/07/08 06:12:40;;;;;;;;;7.00;4.00;;;;;22.79;80.63;101202.84;6187816;23;45572;-82
2023/07/08 06:15:12;;;;;;;;;3.50;3.50;;;;;23.43;81.02;101304.88;6187562;23;47161;-82
2023/07/08 06:17:37;;;;;;;;;5.33;4.00;;;;;22.75;80.69;101187.94;6185044;23;45172;-83
2023/07/08 06:20:03;;;;;;;;;5.25;5.25;;;;;23.29;76.67;101271.91;6186390;23;45451;-82
2023/07/08 06:22:28;;;;;;;;;7.00;5.75;;;;;23.21;76.14;101255.53;6160800;23;45295;-83
2023/07/08 06:24:54;;;;;;;;;5.00;5.00;;;;;23.40;76.95;101270.00;6190611;23;45504;-82
2023/07/08 06:27:20;;;;;;;;;3.75;3.75;;;;;23.74;73.54;101330.72;6161361;23;45314;-82
2023/07/08 06:29:48;;;;;;;;;4.00;3.75;;;;;23.91;76.15;101327.28;6185399;23;45272;-82
2023/07/08 06:32:19;;;;;;;;;4.50;4.50;;;;;23.79;76.01;101266.28;6183730;23;45253;-82
2023/07/08 06:34:47;;;;;;;;;4.67;4.67;;;;;23.88;74.92;101262.72;6184708;23;46624;-81
2023/07/08 06:37:15;;;;;;;;;6.00;6.00;;;;;23.84;73.28;101247.81;6191425;23;45225;-82
2023/07/08 06:39:43;;;;;;;;;7.75;6.00;;;;;24.25;71.78;101285.22;6195083;23;45215;-82
2023/07/08 06:42:22;;;;;;;;;7.25;7.00;;;;;24.17;70.26;101246.44;6200030;23;44754;-82
2023/07/08 06:44:58;;;;;;;;;13.00;13.00;;;;;24.92;68.57;101337.31;6168300;23;47454;-82
2023/07/08 06:47:40;;;;;;;;;18.50;18.50;;;;;24.66;68.22;101267.69;6191282;23;45680;-82
2023/07/08 06:50:09;;;;;;;;;24.75;24.75;;;;;24.76;64.67;101264.91;6192382;23;45369;-82
2023/07/08 06:52:44;;;;;;;;;20.50;20.50;;;;;25.15;66.53;101282.59;6188083;23;45491;-81
2023/07/08 06:55:13;;;;;;;;;21.25;21.25;;;;;25.33;65.43;101301.53;6160420;23;46304;-81
2023/07/08 06:57:39;;;;;;;;;32.00;31.50;;;;;25.30;62.96;101294.56;6160264;23;45306;-81
2023/07/08 07:00:10;;;;;;;;;25.50;25.50;;;;;25.42;63.48;101301.44;6187808;23;45357;-81
2023/07/08 07:02:43;;;;;;;;;26.33;26.33;;;;;25.51;63.42;101298.84;6186833;23;45383;-81
2023/07/08 07:05:09;;;;;;;;;25.50;25.50;;;;;25.46;63.39;101284.91;6157361;23;46373;-80
2023/07/08 07:07:53;;;;;;;;;32.25;31.75;;;;;25.49;61.94;101281.88;6180530;23;45385;-82
2023/07/08 07:10:24;;;;;;;;;44.00;38.67;;;;;25.83;58.84;101327.06;6184408;23;45367;-81
2023/07/08 07:12:50;;;;;;;;;38.33;34.67;;;;;25.80;59.96;101289.44;6182777;23;45330;-81
2023/07/08 07:15:18;;;;;;;;;47.50;41.00;;;;;26.07;59.50;101326.38;6185060;23;45812;-81
2023/07/08 07:17:47;;;;;;;;;16.67;16.67;;;;;26.34;61.11;101345.22;6184617;23;45199;-81
2023/07/08 07:20:13;;;;;;;;;46.00;40.33;;;;;26.66;59.41;101390.69;6158639;23;45172;-81
2023/07/08 07:22:44;;;;;;;;;47.25;41.00;;;;;26.42;57.91;101342.56;6185786;23;45405;-81
2023/07/08 07:25:09;;;;;;;;;138.67;138.67;;;;;26.36;55.83;101297.09;6181611;23;45588;-81
2023/07/08 07:27:50;;;;;;;;;55.50;46.75;;;;;26.44;56.55;101282.69;6185227;23;45211;-81
2023/07/08 07:30:21;;;;;;;;;58.67;45.67;;;;;26.75;56.18;101323.69;6182193;23;45737;-81
2023/07/08 07:32:46;;;;;;;;;54.25;46.25;;;;;26.84;56.92;101320.03;6183824;23;45452;-81
2023/07/08 07:35:14;;;;;;;;;63.00;51.25;;;;;26.71;56.00;101300.63;6182835;23;45415;-81
2023/07/08 07:37:43;;;;;;;;;61.25;49.75;;;;;26.83;55.74;101294.75;6183729;23;45334;-81
2023/07/08 07:40:21;;;;;;;;;59.67;49.33;;;;;27.29;55.85;101349.53;6185191;23;45386;-80
2023/07/08 07:42:47;;;;;;;;;65.50;52.50;;;;;27.12;54.69;101317.91;6185733;23;45210;-81
2023/07/08 07:45:13;;;;;;;;;63.33;51.33;;;;;27.53;55.03;101346.00;6158916;23;45250;-81
2023/07/08 07:47:49;;;;;;;;;57.75;47.25;;;;;27.79;54.49;101384.75;6183176;23;45279;-81
2023/07/08 07:50:14;;;;;;;;;65.00;52.00;;;;;27.66;54.31;101338.19;6183171;23;45309;-81
2023/07/08 07:52:40;;;;;;;;;66.25;53.00;;;;;27.64;54.36;101310.34;6183741;23;45556;-81
2023/07/08 07:55:09;;;;;;;;;63.40;52.80;;;;;28.00;54.15;101349.75;6183055;23;47509;-81
2023/07/08 07:57:34;;;;;;;;;62.75;52.25;;;;;27.99;54.47;101309.09;6185493;23;45240;-80
2023/07/08 08:00:09;;;;;;;;;59.50;50.25;;;;;28.12;54.07;101333.94;6185527;23;45540;-81
2023/07/08 08:02:54;;;;;;;;;58.50;49.00;;;;;28.20;53.13;101333.94;6156549;23;46110;-81
2023/07/08 08:05:23;;;;;;;;;65.25;53.00;;;;;28.33;52.02;101339.69;6184370;23;45592;-81
2023/07/08 08:07:54;;;;;;;;;60.40;49.80;;;;;28.32;52.92;101308.91;6185060;23;45286;-80
2023/07/08 08:10:26;;;;;;;;;60.00;49.00;;;;;28.87;52.72;101384.25;6158000;23;45275;-81
2023/07/08 08:13:09;;;;;;;;;59.00;48.00;;;;;28.55;52.17;101310.84;6184522;23;45492;-81
2023/07/08 08:15:38;;;;;;;;;63.75;53.00;;;;;28.81;51.12;101327.78;6184539;23;45290;-81
2023/07/08 08:18:06;;;;;;;;;63.20;52.00;;;;;28.75;51.51;101298.53;6185194;23;45207;-81
2023/07/08 08:20:36;;;;;;;;;60.00;49.80;;;;;29.39;50.94;101398.13;6184467;23;45425;-81
2023/07/08 08:23:19;;;;;;;;;129.60;120.40;;;;;29.53;50.74;101415.59;6184227;23;45381;-81
2023/07/08 08:25:45;;;;;;;;;63.00;51.20;;;;;29.14;49.55;101323.00;6186753;23;45322;-82
2023/07/08 08:28:13;;;;;;;;;64.67;51.33;;;;;29.29;50.87;101322.06;6187938;23;45413;-82
2023/07/08 08:31:14;;;;;;;;;65.00;52.80;;;;;29.37;50.80;101312.97;6162050;23;45294;-81
2023/07/08 08:33:51;;;;;;;;;72.20;58.00;;;;;29.88;49.13;101383.13;6169597;23;45522;-81
2023/07/08 08:36:34;;;;;;;;;73.00;57.75;;;;;29.89;48.69;101371.22;6181947;23;46953;-81
2023/07/08 08:39:09;;;;;;;;;124.00;74.80;;;;;29.88;48.12;101355.00;6184264;23;45317;-81
2023/07/08 08:41:46;;;;;;;;;363.80;79.80;;;;;29.83;48.11;101341.09;6183771;23;45396;-82
2023/07/08 08:44:44;;;;;;;;;3138.00;3105.40;;;;;29.90;47.85;101331.16;6160250;23;45421;-82
2023/07/08 08:47:38;;;;;;;;;136.00;57.40;;;;;30.55;48.09;101420.56;6182631;23;46580;-82
2023/07/08 08:50:29;;;;;;;;;529.00;411.40;;;;;30.53;47.85;101406.28;6181362;23;45219;-82
2023/07/08 08:53:24;;;;;;;;;271.80;86.60;;;;;30.74;47.81;101426.31;6129326;23;45425;-82
2023/07/08 08:56:33;;;;;;;;;1761.60;1736.00;;;;;30.81;48.68;101418.22;6182585;23;45311;-82
2023/07/08 08:59:49;;;;;;;;;608.40;534.80;;;;;30.77;46.74;101398.63;6033416;23;47627;-82
2023/07/08 09:02:36;;;;;;;;;;;;;;;;;;;;;
2023/07/08 09:05:15;;;;;;;;;1348.40;1299.20;;;;;30.80;47.54;101379.13;6183331;23;67916;-82
2023/07/08 09:08:13;;;;;;;;;259.60;49.80;;;;;31.20;47.11;101420.66;6150160;23;45491;-82
2023/07/08 09:11:12;;;;;;;;;3431.80;3431.80;;;;;30.87;45.86;101371.88;6126186;23;46225;-82
2023/07/08 09:14:23;;;;;;;;;;;;;;;;;;;;;
2023/07/08 09:20:47;;;;;;;;;3412.00;3412.00;;;;;30.76;45.69;101345.03;6121834;23;45412;-82
2023/07/08 09:23:33;;;;;;;;;;;;;;;;;;;;;
2023/07/08 09:26:11;;;;;;;;;362.40;279.40;;;;;31.37;46.75;101359.25;6137611;23;71974;-82
2023/07/08 09:28:56;;;;;;;;;3424.75;3424.75;;;;;31.38;45.03;101326.22;6151353;23;45492;-82
2023/07/08 09:31:33;;;;;;;;;2804.00;2769.80;;;;;31.97;46.24;101377.94;6154440;23;45464;-82
2023/07/08 09:37:46;;;;;;;;;3423.67;3423.67;;;;;32.37;44.91;101409.22;6152348;23;45549;-82
2023/07/08 09:40:35;;;;;;;;;3415.67;3415.67;;;;;32.11;44.85;101390.72;6152790;23;45358;-82
2023/07/08 09:43:42;;;;;;;;;3427.25;3427.25;;;;;32.08;45.60;101423.97;6151904;23;45403;-82
2023/07/08 09:46:22;;;;;;;;;2090.80;2081.60;;;;;31.51;47.03;101341.13;6177004;23;46614;-82
2023/07/08 09:48:48;;;;;;;;;3394.40;3394.40;;;;;31.91;45.89;101412.41;6152088;23;45329;-82
2023/07/08 09:51:38;;;;;;;;;3434.80;3434.80;;;;;31.69;45.92;101388.00;6149285;23;45705;-82
2023/07/08 09:54:15;;;;;;;;;;;;;;;;;;;;;
2023/07/08 09:57:04;;;;;;;;;3425.67;3425.67;;;;;31.54;45.66;101335.25;6150067;23;74884;-82
2023/07/08 09:59:39;;;;;;;;;3432.25;3432.25;;;;;31.77;47.25;101349.56;6151597;23;45416;-82
2023/07/08 10:02:39;;;;;;;;;2914.40;2884.00;;;;;31.86;47.72;101324.59;6150435;23;45337;-82
2023/07/08 10:05:14;;;;;;;;;3271.80;3252.60;;;;;32.25;46.58;101375.25;6144173;23;45623;-83
2023/07/08 10:07:53;;;;;;;;;;;;;;;;;;;;;
2023/07/08 10:10:39;;;;;;;;;3417.50;3417.50;;;;;32.25;44.79;101348.72;6154072;23;71651;-82
2023/07/08 10:13:27;;;;;;;;;3426.75;3426.75;;;;;32.45;43.53;101404.47;6152758;23;45357;-82
2023/07/08 10:16:07;;;;;;;;;3401.00;3401.00;;;;;31.98;43.73;101320.28;6154865;23;45305;-83
2023/07/08 10:18:50;;;;;;;;;;;;;;;;;;;;;
2023/07/08 10:21:45;;;;;;;;;3416.25;3416.25;;;;;32.58;44.12;101391.94;6151131;23;72686;-82
2023/07/08 10:24:37;;;;;;;;;3428.75;3428.75;;;;;32.61;44.05;101377.81;6178476;23;45205;-82
2023/07/08 10:27:53;;;;;;;;;3396.25;3396.25;;;;;32.62;44.22;101368.56;6177857;23;45690;-82
2023/07/08 10:31:38;;;;;;;;;3410.75;3410.75;;;;;32.63;42.93;101351.06;6162420;23;45856;-82
2023/07/08 10:34:32;;;;;;;;;3394.00;3394.00;;;;;33.02;44.05;101411.53;6112839;23;45513;-82
2023/07/08 10:37:58;;;;;;;;;3380.75;3380.75;;;;;33.14;43.18;101420.06;6171228;23;45660;-82
2023/07/08 10:40:51;;;;;;;;;3396.00;3396.00;;;;;33.13;41.74;101380.84;6115156;23;45560;-82
2023/07/08 10:44:52;;;;;;;;;3333.20;3333.20;;;;;33.39;42.90;101397.38;6115702;23;45416;-82
2023/07/08 10:47:56;;;;;;;;;3368.00;3368.00;;;;;33.23;41.93;101350.28;6151089;23;45353;-82
2023/07/08 10:51:00;;;;;;;;;3444.50;3444.50;;;;;33.62;44.11;101399.78;6154089;23;45176;-82
2023/07/08 11:00:59;;;;;;;;;3379.60;3379.60;;;;;34.03;40.80;101416.91;6045028;23;45286;-82
2023/07/08 11:04:24;;;;;;;;;;;;;;;;;;;;;
2023/07/08 11:07:08;;;;;;;;;3418.00;3418.00;;;;;33.77;41.15;101322.75;6062900;23;71100;-83
2023/07/08 11:10:21;;;;;;;;;;;;;;;;;;;;;
2023/07/08 11:16:47;;;;;;;;;3408.40;3408.40;;;;;34.10;42.67;101318.06;6009519;23;45503;-83
2023/07/08 11:19:49;;;;;;;;;3371.40;3371.40;;;;;34.55;40.75;101371.28;6130145;23;45333;-83
2023/07/08 11:22:29;;;;;;;;;3410.33;3410.33;;;;;34.43;40.24;101337.25;6156394;23;45681;-83
2023/07/08 11:25:10;;;;;;;;;3402.40;3402.40;;;;;34.70;39.74;101358.13;6158419;23;45207;-83
2023/07/08 11:27:56;;;;;;;;;3435.60;3435.60;;;;;34.81;39.19;101348.38;6157714;23;45488;-83
2023/07/08 11:30:42;;;;;;;;;3410.75;3410.75;;;;;34.74;36.88;101320.06;6157011;23;45239;-83
2023/07/08 11:36:49;;;;;;;;;;;;;;;;;;;;;
2023/07/08 11:53:37;;;;;;;;;3416.25;3416.25;;;;;35.79;38.07;101371.75;6144243;23;45302;-82
2023/07/08 11:56:39;;;;;;;;;;;;;;;;;;;;;
2023/07/08 11:59:38;;;;;;;;;3385.00;3385.00;;;;;35.97;38.23;101358.88;6152184;23;74228;-82
2023/07/08 12:02:58;;;;;;;;;3408.60;3408.60;;;;;36.04;38.83;101345.91;6176021;23;45592;-82
2023/07/08 12:06:19;;;;;;;;;;;;;;;;;;;;;
2023/07/08 12:08:52;;;;;;;;;3384.33;3384.33;;;;;36.26;37.76;101339.97;6150864;23;71565;-82
2023/07/08 12:11:55;;;;;;;;;3328.80;3323.60;;;;;35.90;36.93;101256.22;6152131;23;46804;-82
2023/07/08 12:18:45;;;;;;;;;;;;;;;;;;;;;
2023/07/08 12:21:02;;;;;;;;;3383.50;3383.50;;;;;36.27;36.81;101248.00;6148573;23;45461;-82
2023/07/08 12:26:53;;;;;;;;;3369.25;3369.25;;;;;36.47;34.51;101289.94;6153832;23;45417;-82
2023/07/08 12:29:18;;;;;;;;;3407.00;3407.00;;;;;36.50;36.17;101270.19;6176793;23;45303;-83
2023/07/08 12:34:58;;;;;;;;;3432.33;3432.33;;;;;36.73;35.75;101330.16;6182135;23;45636;-82
2023/07/08 12:37:25;;;;;;;;;3305.20;3303.60;;;;;37.01;34.56;101331.28;6180939;23;45314;-83
2023/07/08 12:40:03;;;;;;;;;3383.25;3383.25;;;;;36.68;36.33;101256.44;6155946;23;45605;-83
2023/07/08 12:42:52;;;;;;;;;3365.20;3365.20;;;;;36.98;38.69;101267.44;6157316;23;45346;-82
2023/07/08 12:45:48;;;;;;;;;3421.20;3421.20;;;;;37.10;35.32;101268.38;6183265;23;46547;-82
2023/07/08 12:51:56;;;;;;;;;3363.00;3363.00;;;;;37.83;35.30;101318.56;6182907;23;45349;-82
2023/07/08 12:57:50;;;;;;;;;;;;;;;;;;;;;
2023/07/08 13:00:32;;;;;;;;;3389.60;3389.60;;;;;38.49;34.16;101326.53;6181784;23;72167;-82